Time;durP1;ratioP1;P1;durP2;ratioP2;P2;SDS_P1;SDS_P2;PMS_P1;PMS_P2;Temp;Humidity;BMP_temperature;BMP_pressure;BME280_temperature;BME280_humidity;BME280_pressure;Samples;Min_cycle;Max_cycle;Signal;HPM_P1;HPM_P2
2021/06/20 00:02:07;;;;;;;39.53;36.80;;;27.10;67.20;;;;;;5036193;28;20547;-81
2021/06/20 00:04:34;;;;;;;38.80;36.40;;;27.10;67.30;;;;;;4994935;28;20489;-81
2021/06/20 00:07:01;;;;;;;39.27;36.47;;;27.10;67.20;;;;;;5006709;28;20542;-80
2021/06/20 00:09:30;;;;;;;40.87;38.03;;;27.00;67.40;;;;;;5012023;28;20589;-81
2021/06/20 00:11:57;;;;;;;39.23;36.53;;;27.00;67.40;;;;;;5002810;28;20454;-81
2021/06/20 00:14:24;;;;;;;40.17;37.23;;;27.00;67.40;;;;;;5005775;28;20570;-80
2021/06/20 00:16:52;;;;;;;39.33;36.77;;;27.00;67.60;;;;;;5014455;28;20508;-81
2021/06/20 00:19:20;;;;;;;40.10;37.33;;;26.90;67.60;;;;;;5024461;28;20756;-81
2021/06/20 00:21:47;;;;;;;39.10;36.50;;;26.90;67.70;;;;;;5010248;28;20518;-80
2021/06/20 00:24:14;;;;;;;40.37;37.60;;;27.00;67.50;;;;;;5012711;28;20566;-80
2021/06/20 00:26:41;;;;;;;39.40;36.80;;;27.10;67.40;;;;;;5012829;28;20538;-81
2021/06/20 00:29:08;;;;;;;39.40;36.80;;;27.00;67.50;;;;;;5005462;28;20562;-80
2021/06/20 00:31:34;;;;;;;40.33;37.43;;;27.00;67.50;;;;;;4985427;28;20512;-81
2021/06/20 00:34:03;;;;;;;40.30;37.47;;;27.00;67.60;;;;;;5030657;28;21020;-81
2021/06/20 00:36:30;;;;;;;39.03;36.00;;;26.90;67.30;;;;;;5019168;28;20734;-80
2021/06/20 00:38:57;;;;;;;40.37;37.50;;;26.90;67.00;;;;;;5003973;28;20470;-81
2021/06/20 00:41:24;;;;;;;39.80;36.77;;;26.90;66.50;;;;;;5014867;28;20469;-81
2021/06/20 00:43:54;;;;;;;39.07;36.37;;;27.00;65.80;;;;;;5013028;28;20486;-80
2021/06/20 00:46:21;;;;;;;39.77;37.00;;;27.00;66.20;;;;;;5004376;28;20461;-81
2021/06/20 00:48:47;;;;;;;40.67;38.07;;;27.00;66.90;;;;;;5010887;28;20569;-81
2021/06/20 00:51:16;;;;;;;38.93;36.43;;;26.90;67.60;;;;;;5024803;28;20550;-81
2021/06/20 00:53:43;;;;;;;39.50;36.50;;;26.90;67.60;;;;;;4990158;28;20489;-81
2021/06/20 00:56:11;;;;;;;39.43;36.90;;;26.80;67.80;;;;;;5022741;28;21326;-80
2021/06/20 00:58:38;;;;;;;39.40;36.83;;;26.80;67.90;;;;;;4995208;28;20466;-81
2021/06/20 01:01:08;;;;;;;40.43;37.40;;;26.70;68.10;;;;;;5019808;28;20472;-81
2021/06/20 01:03:35;;;;;;;40.30;37.50;;;26.70;68.30;;;;;;5008234;28;20493;-81
2021/06/20 01:06:02;;;;;;;40.70;37.80;;;26.70;68.10;;;;;;5010441;28;21193;-81
2021/06/20 01:08:30;;;;;;;40.63;37.93;;;26.70;67.90;;;;;;5009186;28;20573;-80
2021/06/20 01:10:57;;;;;;;40.70;37.80;;;26.70;68.30;;;;;;5014888;28;20457;-80
2021/06/20 01:13:24;;;;;;;42.10;37.03;;;26.70;68.20;;;;;;5010263;28;20557;-80
2021/06/20 01:15:52;;;;;;;40.23;36.40;;;26.70;66.80;;;;;;5021132;28;20474;-81
2021/06/20 01:18:20;;;;;;;40.77;36.57;;;26.80;65.50;;;;;;4998551;28;20565;-80
2021/06/20 01:20:47;;;;;;;40.10;35.90;;;27.00;64.60;;;;;;5010446;28;20457;-80
2021/06/20 01:23:15;;;;;;;48.57;36.40;;;27.10;63.80;;;;;;5003240;28;20488;-80
2021/06/20 01:25:44;;;;;;;39.70;35.33;;;27.20;63.40;;;;;;5035659;28;20559;-80
2021/06/20 01:28:12;;;;;;;39.53;35.43;;;27.20;63.20;;;;;;5001045;28;21381;-81
2021/06/20 01:30:43;;;;;;;46.67;36.57;;;27.30;62.70;;;;;;5025570;28;20455;-81
2021/06/20 01:33:12;;;;;;;38.70;34.70;;;27.30;62.60;;;;;;5003458;28;20471;-80
2021/06/20 01:35:42;;;;;;;39.63;33.47;;;27.30;62.30;;;;;;5022497;28;20545;-80
2021/06/20 01:38:11;;;;;;;47.23;35.13;;;27.30;62.30;;;;;;5001392;28;20485;-80
2021/06/20 01:40:43;;;;;;;48.40;35.33;;;27.40;62.10;;;;;;5012441;28;20531;-80
2021/06/20 01:43:10;;;;;;;42.83;33.50;;;27.40;62.10;;;;;;4990314;28;20512;-80
2021/06/20 01:45:38;;;;;;;44.40;33.63;;;27.30;62.20;;;;;;5017240;28;20493;-80
2021/06/20 01:48:07;;;;;;;45.73;34.33;;;27.40;62.00;;;;;;5007704;28;20462;-80
2021/06/20 01:50:35;;;;;;;44.60;35.00;;;27.40;62.10;;;;;;5018642;28;20931;-80
2021/06/20 01:53:07;;;;;;;40.07;34.80;;;27.30;62.20;;;;;;4991166;28;20475;-80
2021/06/20 01:55:34;;;;;;;45.00;34.70;;;27.30;62.20;;;;;;4966647;28;20462;-80
2021/06/20 01:58:05;;;;;;;42.37;33.53;;;27.30;62.10;;;;;;4986752;28;20550;-80
2021/06/20 02:00:33;;;;;;;38.17;34.13;;;27.30;62.00;;;;;;5015026;28;20519;-81
2021/06/20 02:03:06;;;;;;;44.87;34.17;;;27.30;61.90;;;;;;5011030;28;20600;-81
2021/06/20 02:05:37;;;;;;;39.43;34.87;;;27.30;62.00;;;;;;4987413;28;21411;-81
2021/06/20 02:08:04;;;;;;;44.33;34.40;;;27.30;61.80;;;;;;5010649;28;21077;-81
2021/06/20 02:10:31;;;;;;;52.77;34.30;;;27.30;61.80;;;;;;5002422;28;20472;-80
2021/06/20 02:12:58;;;;;;;41.80;34.60;;;27.30;61.90;;;;;;5012749;28;20456;-80
2021/06/20 02:15:27;;;;;;;45.83;35.87;;;27.20;62.10;;;;;;5005981;28;20464;-80
2021/06/20 02:17:54;;;;;;;38.17;34.10;;;27.20;62.20;;;;;;4983435;28;20462;-81
2021/06/20 02:20:21;;;;;;;45.23;35.17;;;27.10;62.30;;;;;;5023769;28;20587;-80
2021/06/20 02:22:51;;;;;;;41.60;34.60;;;27.10;62.40;;;;;;5010509;28;20477;-80
2021/06/20 02:25:20;;;;;;;46.80;35.00;;;27.10;62.50;;;;;;5002794;28;20473;-80
2021/06/20 02:27:48;;;;;;;44.03;34.00;;;27.10;62.70;;;;;;4985036;28;20493;-80
2021/06/20 02:30:17;;;;;;;39.23;33.50;;;27.00;63.10;;;;;;5019607;28;20464;-80
2021/06/20 02:32:46;;;;;;;38.27;34.00;;;27.00;63.20;;;;;;4996353;28;20477;-80
2021/06/20 02:35:15;;;;;;;40.97;33.17;;;27.00;63.20;;;;;;5006061;28;21063;-80
2021/06/20 02:37:43;;;;;;;47.40;34.40;;;26.90;63.40;;;;;;5010783;28;20872;-80
2021/06/20 02:40:12;;;;;;;38.37;33.60;;;26.80;63.70;;;;;;5025711;28;20488;-78
2021/06/20 02:42:39;;;;;;;43.40;33.73;;;26.80;64.00;;;;;;5013827;28;21013;-81
2021/06/20 02:45:09;;;;;;;42.37;34.40;;;26.90;63.80;;;;;;5029267;28;20480;-80
2021/06/20 02:47:37;;;;;;;40.87;35.40;;;26.80;64.00;;;;;;5006086;28;20476;-81
2021/06/20 02:50:07;;;;;;;39.17;34.77;;;26.70;64.50;;;;;;5028820;28;20470;-81
2021/06/20 02:52:34;;;;;;;37.67;33.77;;;26.70;64.50;;;;;;5021649;28;20537;-80
2021/06/20 02:55:02;;;;;;;39.10;34.00;;;26.70;64.60;;;;;;5031180;28;20474;-80
2021/06/20 02:57:30;;;;;;;39.80;34.47;;;26.60;64.90;;;;;;5018344;28;20872;-80
2021/06/20 03:00:01;;;;;;;36.83;32.87;;;26.60;65.00;;;;;;5028793;28;20469;-81
2021/06/20 03:02:28;;;;;;;43.73;36.07;;;26.60;65.00;;;;;;5021028;28;20545;-80
2021/06/20 03:04:56;;;;;;;39.93;34.57;;;26.60;65.10;;;;;;5032277;28;20481;-80
2021/06/20 03:07:24;;;;;;;39.47;35.20;;;26.60;65.00;;;;;;5034748;28;20565;-80
2021/06/20 03:09:52;;;;;;;42.17;34.97;;;26.60;65.00;;;;;;5023390;28;20461;-80
2021/06/20 03:12:19;;;;;;;38.63;34.23;;;26.40;65.00;;;;;;4996773;28;20469;-80
2021/06/20 03:14:47;;;;;;;42.23;36.00;;;26.30;65.30;;;;;;5024774;28;20488;-80
2021/06/20 03:17:15;;;;;;;38.40;34.23;;;26.30;65.40;;;;;;5018476;28;20463;-80
2021/06/20 03:19:43;;;;;;;38.43;34.60;;;26.40;65.30;;;;;;5009429;28;20471;-80
2021/06/20 03:22:10;;;;;;;41.33;34.80;;;26.40;65.30;;;;;;5009840;28;20488;-80
2021/06/20 03:24:40;;;;;;;45.23;34.63;;;26.40;65.60;;;;;;5036436;28;20520;-81
2021/06/20 03:27:08;;;;;;;43.60;33.73;;;26.50;65.50;;;;;;5007925;28;20583;-80
2021/06/20 03:29:35;;;;;;;38.50;34.50;;;26.40;65.70;;;;;;5003841;28;20462;-80
2021/06/20 03:32:02;;;;;;;43.33;36.70;;;26.30;65.80;;;;;;5016620;28;20526;-80
2021/06/20 03:34:31;;;;;;;39.20;35.17;;;26.20;67.00;;;;;;5025079;28;20601;-80
2021/06/20 03:36:58;;;;;;;38.80;35.03;;;26.10;67.70;;;;;;4992228;28;20573;-80
2021/06/20 03:39:25;;;;;;;41.30;34.50;;;26.00;67.90;;;;;;4975147;28;20467;-80
2021/06/20 03:41:53;;;;;;;38.83;34.63;;;26.10;67.80;;;;;;5011275;28;20480;-80
2021/06/20 03:44:20;;;;;;;39.37;35.67;;;26.10;67.90;;;;;;5008164;28;20544;-80
2021/06/20 03:46:47;;;;;;;36.60;33.50;;;26.10;68.00;;;;;;5017851;28;20458;-80
2021/06/20 03:49:14;;;;;;;40.80;34.70;;;26.10;68.10;;;;;;5009303;28;20458;-81
2021/06/20 03:51:41;;;;;;;42.33;35.10;;;26.20;67.70;;;;;;5026110;28;20471;-81
2021/06/20 03:54:08;;;;;;;38.00;33.80;;;26.20;67.40;;;;;;5021268;28;21118;-81
2021/06/20 03:56:35;;;;;;;37.43;33.40;;;26.20;67.50;;;;;;4982387;28;20548;-80
2021/06/20 03:59:04;;;;;;;46.60;33.97;;;26.30;67.30;;;;;;5004266;28;20808;-80
2021/06/20 04:01:31;;;;;;;37.37;33.40;;;26.20;67.50;;;;;;5005738;28;20462;-80
2021/06/20 04:03:58;;;;;;;39.27;35.07;;;26.20;67.60;;;;;;5022875;28;20488;-80
2021/06/20 04:06:24;;;;;;;39.33;35.23;;;26.30;67.70;;;;;;5014081;28;20550;-80
2021/06/20 04:08:51;;;;;;;44.40;36.53;;;26.30;67.90;;;;;;5025694;28;20471;-80
2021/06/20 04:11:18;;;;;;;41.37;36.60;;;26.30;67.70;;;;;;5008382;28;20526;-80
2021/06/20 04:13:45;;;;;;;39.00;35.03;;;26.40;67.70;;;;;;5013729;28;20493;-80
2021/06/20 04:16:13;;;;;;;37.57;33.23;;;26.30;68.20;;;;;;5022739;28;20458;-80
2021/06/20 04:18:40;;;;;;;38.40;34.50;;;26.10;68.80;;;;;;5009551;28;20446;-80
2021/06/20 04:21:07;;;;;;;39.23;35.60;;;26.10;68.90;;;;;;5018668;28;20987;-80
2021/06/20 04:23:34;;;;;;;47.70;35.33;;;26.10;69.00;;;;;;4995314;28;20636;-80
2021/06/20 04:26:01;;;;;;;37.90;33.87;;;26.20;68.80;;;;;;5014221;28;20461;-81
2021/06/20 04:28:28;;;;;;;40.33;36.07;;;26.20;68.70;;;;;;4986673;28;20458;-80
2021/06/20 04:30:58;;;;;;;40.00;35.80;;;26.30;68.60;;;;;;5010784;28;20494;-81
2021/06/20 04:33:28;;;;;;;39.67;35.97;;;26.40;68.60;;;;;;4992842;28;20582;-80
2021/06/20 04:35:57;;;;;;;42.10;36.10;;;26.50;68.50;;;;;;5013866;28;20581;-81
2021/06/20 04:38:24;;;;;;;47.63;35.13;;;26.50;68.20;;;;;;4992009;28;21052;-81
2021/06/20 04:40:57;;;;;;;38.53;34.67;;;26.50;68.00;;;;;;5012529;28;20550;-81
2021/06/20 04:43:37;;;;;;;40.67;36.27;;;26.50;68.10;;;;;;5013668;28;20486;-82
2021/06/20 04:46:05;;;;;;;46.90;36.87;;;26.50;68.30;;;;;;5037756;28;20519;-81
2021/06/20 04:48:33;;;;;;;41.43;36.87;;;26.50;68.40;;;;;;5016399;28;20580;-81
2021/06/20 04:51:00;;;;;;;38.47;34.80;;;26.50;68.40;;;;;;5009098;28;21072;-81
2021/06/20 04:53:27;;;;;;;40.50;36.57;;;26.50;68.40;;;;;;5018062;28;20474;-80
2021/06/20 04:55:54;;;;;;;41.37;37.33;;;26.60;68.10;;;;;;5032134;28;20450;-82
2021/06/20 04:58:20;;;;;;;40.37;36.73;;;26.60;68.40;;;;;;5012711;28;20458;-81
2021/06/20 05:00:47;;;;;;;39.83;35.90;;;26.60;68.60;;;;;;5008111;28;20481;-80
2021/06/20 05:03:14;;;;;;;38.77;35.30;;;26.80;69.10;;;;;;4990259;28;20496;-81
2021/06/20 05:05:45;;;;;;;41.60;36.00;;;26.90;68.50;;;;;;5013012;28;20458;-81
2021/06/20 05:08:12;;;;;;;40.87;36.70;;;27.10;67.50;;;;;;5018036;28;20585;-81
2021/06/20 05:10:38;;;;;;;39.23;35.60;;;27.10;67.20;;;;;;5020022;28;20466;-81
2021/06/20 05:13:05;;;;;;;38.33;34.60;;;27.20;67.50;;;;;;5017403;28;20461;-80
2021/06/20 05:15:32;;;;;;;38.53;34.57;;;27.30;67.20;;;;;;4995988;28;20552;-81
2021/06/20 05:17:59;;;;;;;37.77;34.20;;;27.40;67.20;;;;;;5016507;28;20561;-81
2021/06/20 05:20:26;;;;;;;37.10;33.17;;;27.50;66.50;;;;;;5021500;28;20545;-81
2021/06/20 05:22:55;;;;;;;36.80;33.40;;;27.60;66.20;;;;;;5008874;28;20463;-81
2021/06/20 05:25:22;;;;;;;37.77;34.13;;;27.40;65.90;;;;;;5014873;28;20515;-81
2021/06/20 05:27:49;;;;;;;38.87;35.33;;;27.30;66.30;;;;;;5016213;28;20458;-81
2021/06/20 05:30:17;;;;;;;37.33;33.60;;;27.20;66.10;;;;;;5013213;28;20549;-81
2021/06/20 05:32:44;;;;;;;37.33;33.57;;;27.20;66.30;;;;;;5016392;28;20450;-81
2021/06/20 05:35:11;;;;;;;36.67;33.27;;;27.10;65.90;;;;;;5012570;28;20474;-81
2021/06/20 05:37:38;;;;;;;36.17;33.33;;;27.20;65.30;;;;;;4998958;28;20497;-81
2021/06/20 05:40:07;;;;;;;35.03;32.00;;;27.20;65.60;;;;;;5014329;28;20468;-80
2021/06/20 05:42:34;;;;;;;35.17;31.87;;;27.20;65.70;;;;;;5015008;28;20558;-81
2021/06/20 05:45:01;;;;;;;34.20;31.07;;;27.10;66.30;;;;;;5009885;28;20482;-81
2021/06/20 05:47:28;;;;;;;36.30;32.97;;;27.10;66.60;;;;;;5014997;28;20458;-80
2021/06/20 05:49:55;;;;;;;34.80;31.80;;;27.10;66.70;;;;;;5034386;28;20454;-81
2021/06/20 05:52:22;;;;;;;34.23;30.90;;;27.20;66.00;;;;;;5006305;28;20558;-80
2021/06/20 05:54:50;;;;;;;38.37;34.90;;;27.30;65.30;;;;;;5008398;28;20529;-80
2021/06/20 05:57:20;;;;;;;34.83;32.20;;;27.40;64.50;;;;;;4993223;28;20505;-81
2021/06/20 05:59:47;;;;;;;34.73;31.77;;;27.50;64.80;;;;;;5003799;28;20471;-80
2021/06/20 06:02:14;;;;;;;35.67;33.07;;;27.50;64.60;;;;;;5006069;28;20458;-81
2021/06/20 06:04:43;;;;;;;34.53;31.93;;;27.70;64.00;;;;;;5009039;28;20486;-81
2021/06/20 06:07:10;;;;;;;32.67;30.07;;;27.70;63.60;;;;;;5004000;28;20459;-80
2021/06/20 06:09:38;;;;;;;35.13;32.43;;;27.80;63.30;;;;;;5016423;28;20585;-81
2021/06/20 06:12:08;;;;;;;34.70;31.90;;;27.90;63.30;;;;;;5016427;28;20463;-81
2021/06/20 06:14:36;;;;;;;32.13;29.53;;;28.10;62.60;;;;;;5020338;28;20482;-81
2021/06/20 06:17:06;;;;;;;34.17;31.60;;;28.30;61.90;;;;;;5002376;28;20488;-80
2021/06/20 06:19:33;;;;;;;35.30;32.37;;;28.40;62.00;;;;;;5040817;28;20530;-81
2021/06/20 06:22:00;;;;;;;31.07;28.80;;;28.40;60.80;;;;;;4991504;28;20463;-81
2021/06/20 06:24:28;;;;;;;33.07;30.43;;;28.30;60.40;;;;;;5020298;28;20494;-80
2021/06/20 06:26:54;;;;;;;40.17;36.57;;;28.10;61.10;;;;;;5011937;28;20465;-81
2021/06/20 06:29:21;;;;;;;36.83;33.83;;;28.10;61.40;;;;;;5021230;28;20454;-81
2021/06/20 06:31:50;;;;;;;32.60;30.20;;;28.30;61.00;;;;;;4996884;28;20467;-81
2021/06/20 06:34:17;;;;;;;32.33;29.70;;;28.50;60.00;;;;;;5010706;28;20524;-81
2021/06/20 06:36:44;;;;;;;32.03;29.33;;;28.60;59.50;;;;;;5003980;28;20904;-81
2021/06/20 06:39:11;;;;;;;31.43;29.23;;;28.50;59.70;;;;;;4990822;28;20594;-81
2021/06/20 06:41:37;;;;;;;31.20;28.60;;;28.20;60.30;;;;;;5015298;28;21032;-81
2021/06/20 06:44:05;;;;;;;33.80;31.20;;;27.80;60.80;;;;;;5037892;28;20884;-81
2021/06/20 06:46:32;;;;;;;32.10;28.90;;;27.70;61.40;;;;;;4964928;28;21050;-81
2021/06/20 06:49:00;;;;;;;34.43;31.40;;;27.60;61.40;;;;;;4991456;28;20525;-81
2021/06/20 06:51:27;;;;;;;30.73;28.67;;;27.60;61.70;;;;;;4980769;28;20463;-81
2021/06/20 06:53:54;;;;;;;33.87;31.17;;;27.80;61.00;;;;;;5002286;28;20488;-81
2021/06/20 06:56:20;;;;;;;32.57;30.30;;;28.00;60.90;;;;;;5012768;28;21047;-81
2021/06/20 06:58:47;;;;;;;32.77;30.47;;;28.20;61.10;;;;;;4998604;28;20473;-82
2021/06/20 07:01:14;;;;;;;32.70;30.30;;;28.40;60.70;;;;;;5007393;28;20490;-81
2021/06/20 07:03:41;;;;;;;33.87;30.87;;;28.50;60.30;;;;;;5009048;28;20493;-81
2021/06/20 07:06:11;;;;;;;34.50;31.47;;;28.80;60.00;;;;;;5023112;28;20472;-81
2021/06/20 07:08:38;;;;;;;34.80;31.63;;;28.90;60.30;;;;;;5011463;28;20454;-80
2021/06/20 07:11:05;;;;;;;35.67;32.43;;;28.90;60.00;;;;;;5033509;28;20519;-80
2021/06/20 07:13:32;;;;;;;36.50;32.80;;;28.80;60.90;;;;;;5004558;28;20484;-81
2021/06/20 07:15:59;;;;;;;37.00;33.40;;;28.60;62.30;;;;;;5017489;28;20496;-82
2021/06/20 07:18:26;;;;;;;36.97;33.57;;;28.30;63.90;;;;;;5004707;28;20548;-82
2021/06/20 07:20:53;;;;;;;36.57;33.33;;;28.20;64.00;;;;;;5007121;28;20501;-82
2021/06/20 07:23:22;;;;;;;38.43;34.90;;;27.90;64.80;;;;;;5005555;28;20599;-82
2021/06/20 07:25:48;;;;;;;38.97;35.08;;;27.90;65.10;;;;;;5013908;28;20586;-82
2021/06/20 07:28:16;;;;;;;36.20;32.90;;;28.00;65.00;;;;;;4996701;28;20203;-83
2021/06/20 07:30:48;;;;;;;36.20;32.40;;;28.00;64.40;;;;;;4993657;28;20470;-83
2021/06/20 07:33:15;;;;;;;36.03;32.63;;;28.00;64.20;;;;;;4969716;28;20486;-83
2021/06/20 07:35:42;;;;;;;34.90;31.70;;;28.20;63.70;;;;;;4978935;28;21244;-80
2021/06/20 07:38:09;;;;;;;36.63;33.03;;;28.20;63.90;;;;;;4993638;28;20522;-79
2021/06/20 07:40:37;;;;;;;34.40;31.20;;;28.10;63.70;;;;;;5007905;28;20522;-81
2021/06/20 07:43:04;;;;;;;33.93;31.03;;;28.10;64.00;;;;;;4981297;28;20507;-80
2021/06/20 07:45:32;;;;;;;34.70;31.50;;;28.10;63.80;;;;;;4976201;28;20496;-80
2021/06/20 07:47:59;;;;;;;35.60;32.50;;;28.20;63.40;;;;;;5009401;28;21071;-80
2021/06/20 07:50:26;;;;;;;35.03;31.53;;;28.10;63.90;;;;;;5033369;28;20469;-82
2021/06/20 07:52:53;;;;;;;35.20;31.90;;;27.90;64.30;;;;;;4978683;28;20462;-80
2021/06/20 07:55:21;;;;;;;35.53;32.37;;;27.80;64.90;;;;;;5016300;28;20512;-82
2021/06/20 07:57:49;;;;;;;34.60;32.00;;;27.70;65.00;;;;;;4971429;28;20523;-82
2021/06/20 08:00:17;;;;;;;35.87;32.37;;;27.60;65.70;;;;;;5015983;28;20483;-81
2021/06/20 08:02:44;;;;;;;35.60;32.30;;;27.80;65.10;;;;;;4985728;28;20578;-81
2021/06/20 08:05:12;;;;;;;34.97;31.67;;;27.70;65.20;;;;;;4986345;28;21046;-78
2021/06/20 08:07:39;;;;;;;32.43;29.70;;;28.00;64.80;;;;;;4980083;28;20477;-81
2021/06/20 08:10:07;;;;;;;32.93;30.37;;;28.00;64.70;;;;;;4983486;28;20486;-80
2021/06/20 08:12:34;;;;;;;35.30;31.50;;;27.90;64.60;;;;;;4970721;28;20467;-79
2021/06/20 08:15:03;;;;;;;33.53;30.20;;;27.80;64.90;;;;;;4973737;28;20521;-78
2021/06/20 08:17:30;;;;;;;34.33;31.27;;;27.60;65.20;;;;;;5017626;28;21309;-79
2021/06/20 08:19:57;;;;;;;35.53;32.50;;;27.50;65.70;;;;;;5037745;28;20458;-81
2021/06/20 08:22:24;;;;;;;36.60;33.30;;;27.50;65.40;;;;;;5005427;28;20461;-79
2021/06/20 08:24:51;;;;;;;39.97;36.60;;;27.20;66.30;;;;;;4999089;28;20548;-79
2021/06/20 08:27:18;;;;;;;35.30;31.87;;;27.20;67.10;;;;;;5011817;28;20463;-79
2021/06/20 08:29:48;;;;;;;35.03;32.33;;;27.20;66.80;;;;;;4993349;28;20462;-79
2021/06/20 08:32:18;;;;;;;35.47;32.67;;;27.40;66.50;;;;;;4992318;28;20458;-79
2021/06/20 08:34:45;;;;;;;35.83;33.13;;;27.80;65.80;;;;;;4976880;28;20486;-80
2021/06/20 08:37:12;;;;;;;39.20;36.37;;;28.10;65.20;;;;;;4990956;28;20503;-80
2021/06/20 08:39:39;;;;;;;40.10;36.90;;;28.30;64.20;;;;;;4990037;28;20467;-80
2021/06/20 08:42:06;;;;;;;33.40;31.00;;;28.50;63.70;;;;;;4984976;28;20475;-80
2021/06/20 08:44:34;;;;;;;34.57;31.67;;;28.60;63.30;;;;;;4969156;28;20489;-80
2021/06/20 08:47:03;;;;;;;34.37;31.20;;;28.90;62.80;;;;;;4984314;28;20458;-81
2021/06/20 08:49:33;;;;;;;33.57;30.87;;;29.00;62.00;;;;;;4986376;28;20496;-81
2021/06/20 08:52:01;;;;;;;35.50;32.23;;;28.90;62.10;;;;;;4970244;28;20463;-82
2021/06/20 08:54:28;;;;;;;32.90;30.10;;;28.70;62.30;;;;;;4982171;28;20466;-85
2021/06/20 08:56:55;;;;;;;34.40;31.00;;;28.90;61.80;;;;;;4984078;28;20546;-80
2021/06/20 08:59:24;;;;;;;33.53;31.23;;;29.00;61.60;;;;;;5042509;28;20458;-80
2021/06/20 09:01:51;;;;;;;33.40;30.80;;;28.80;62.40;;;;;;4980400;28;20518;-82
2021/06/20 09:04:28;;;;;;;36.47;33.57;;;28.90;62.70;;;;;;4974763;28;20522;-81
2021/06/20 09:06:59;;;;;;;37.37;33.93;;;28.90;62.40;;;;;;4961282;28;20467;-80
2021/06/20 09:09:31;;;;;;;35.70;33.13;;;29.00;62.40;;;;;;4970792;28;21209;-80
2021/06/20 09:12:12;;;;;;;32.93;30.33;;;29.30;61.80;;;;;;4968529;28;20541;-80
2021/06/20 09:14:44;;;;;;;33.47;30.87;;;29.40;61.00;;;;;;4968242;28;20485;-81
2021/06/20 09:17:11;;;;;;;36.27;33.37;;;29.40;61.00;;;;;;4966218;28;20529;-81
2021/06/20 09:19:38;;;;;;;39.20;35.80;;;29.50;60.80;;;;;;4966681;28;22638;-79
2021/06/20 09:22:09;;;;;;;34.23;31.73;;;29.70;60.00;;;;;;4975989;28;20502;-79
2021/06/20 09:24:38;;;;;;;33.90;31.10;;;29.50;60.10;;;;;;4980598;28;20485;-79
2021/06/20 09:27:07;;;;;;;35.17;32.17;;;29.30;60.60;;;;;;4981428;28;20486;-79
2021/06/20 09:29:35;;;;;;;37.23;34.17;;;29.20;60.80;;;;;;4965414;28;20471;-80
2021/06/20 09:32:04;;;;;;;35.57;32.70;;;29.10;61.20;;;;;;4981137;28;20512;-80
2021/06/20 09:34:41;;;;;;;34.60;32.20;;;29.00;61.60;;;;;;4973229;28;20539;-80
2021/06/20 09:37:10;;;;;;;33.73;30.90;;;28.90;61.80;;;;;;4999995;28;20449;-80
2021/06/20 09:39:37;;;;;;;39.87;36.93;;;29.20;61.70;;;;;;4972777;28;20468;-80
2021/06/20 09:42:06;;;;;;;32.90;30.20;;;29.60;59.70;;;;;;4968681;28;20534;-80
2021/06/20 09:44:38;;;;;;;34.70;31.60;;;29.40;60.00;;;;;;4974896;28;20482;-80
2021/06/20 09:47:06;;;;;;;36.47;33.87;;;29.30;60.80;;;;;;4976210;28;20490;-80
2021/06/20 09:49:33;;;;;;;35.40;33.00;;;29.70;60.40;;;;;;4976206;28;20498;-80
2021/06/20 09:52:00;;;;;;;33.33;30.37;;;30.00;59.70;;;;;;4974109;28;20569;-81
2021/06/20 09:54:31;;;;;;;32.67;30.00;;;30.20;58.70;;;;;;4975461;28;20509;-81
2021/06/20 09:56:58;;;;;;;31.47;28.87;;;30.60;58.60;;;;;;4974050;28;20482;-81
2021/06/20 09:59:30;;;;;;;35.37;32.23;;;30.90;57.00;;;;;;4970482;28;20570;-81
2021/06/20 10:02:08;;;;;;;39.43;35.90;;;31.00;56.70;;;;;;4972109;28;20586;-81
2021/06/20 10:04:36;;;;;;;34.50;31.77;;;31.20;56.20;;;;;;4981566;28;20490;-81
2021/06/20 10:07:04;;;;;;;31.57;29.17;;;31.40;55.20;;;;;;4987536;28;20467;-81
2021/06/20 10:09:33;;;;;;;32.70;30.10;;;31.50;53.50;;;;;;4973651;28;20463;-82
2021/06/20 10:12:01;;;;;;;33.77;31.23;;;31.50;53.30;;;;;;4989685;28;20513;-81
2021/06/20 10:14:28;;;;;;;31.40;29.30;;;31.50;53.00;;;;;;4970297;28;20485;-81
2021/06/20 10:17:00;;;;;;;30.90;28.57;;;31.30;52.50;;;;;;4966999;28;20455;-81
2021/06/20 10:19:29;;;;;;;32.87;30.60;;;31.30;52.30;;;;;;4966067;28;20459;-81
2021/06/20 10:22:02;;;;;;;31.67;29.20;;;31.10;52.40;;;;;;4964740;28;20572;-81
2021/06/20 10:24:30;;;;;;;30.03;27.73;;;31.00;52.70;;;;;;4971195;28;20540;-80
2021/06/20 10:27:03;;;;;;;29.87;27.77;;;31.20;51.80;;;;;;4963273;28;20489;-82
2021/06/20 10:29:32;;;;;;;31.10;28.70;;;31.30;51.90;;;;;;4959613;28;20462;-82
2021/06/20 10:32:16;;;;;;;29.13;26.83;;;31.20;51.20;;;;;;4962509;28;20466;-82
2021/06/20 10:34:52;;;;;;;30.40;27.80;;;31.10;51.00;;;;;;4963586;28;20506;-82
2021/06/20 10:37:21;;;;;;;31.93;29.23;;;31.10;51.80;;;;;;4998676;28;20466;-82
2021/06/20 10:39:49;;;;;;;29.30;27.30;;;31.30;51.00;;;;;;4969514;28;20478;-78
2021/06/20 10:42:18;;;;;;;30.03;27.73;;;31.40;51.20;;;;;;4965420;28;20569;-82
2021/06/20 10:44:47;;;;;;;31.57;29.27;;;31.40;51.20;;;;;;4967781;28;20510;-82
2021/06/20 10:47:30;;;;;;;33.17;30.73;;;31.60;50.90;;;;;;4976149;28;20553;-82
2021/06/20 10:49:59;;;;;;;30.03;27.83;;;31.70;50.80;;;;;;4986813;28;20515;-82
2021/06/20 10:52:26;;;;;;;30.13;27.97;;;31.70;50.30;;;;;;4968084;28;20462;-82
2021/06/20 10:55:08;;;;;;;30.53;28.53;;;31.80;49.90;;;;;;4967162;28;21396;-82
2021/06/20 10:57:48;;;;;;;32.23;29.97;;;32.00;50.10;;;;;;4968587;28;20473;-82
2021/06/20 11:00:29;;;;;;;29.83;27.93;;;31.90;49.50;;;;;;4966121;28;20501;-83
2021/06/20 11:03:07;;;;;;;30.27;28.37;;;32.00;49.70;;;;;;4962066;28;20582;-80
2021/06/20 11:05:44;;;;;;;28.80;26.90;;;32.20;49.50;;;;;;4961044;28;20548;-82
2021/06/20 11:08:11;;;;;;;29.60;27.40;;;32.50;48.60;;;;;;4951675;28;20585;-82
2021/06/20 11:10:39;;;;;;;30.40;28.43;;;32.50;48.40;;;;;;4965353;28;20899;-82
2021/06/20 11:13:07;;;;;;;29.73;27.77;;;32.80;48.50;;;;;;4965783;28;20796;-84
2021/06/20 11:15:34;;;;;;;33.07;30.00;;;32.90;48.20;;;;;;4965424;28;21204;-80
2021/06/20 11:18:09;;;;;;;29.07;27.13;;;33.00;48.50;;;;;;4978870;28;20469;-82
2021/06/20 11:20:37;;;;;;;32.37;30.03;;;33.20;48.00;;;;;;4970862;28;20573;-79
2021/06/20 11:23:04;;;;;;;29.58;27.40;;;33.00;48.00;;;;;;4961236;28;20576;-82
2021/06/20 11:25:31;;;;;;;31.10;28.97;;;33.40;47.80;;;;;;4959620;28;20230;-82
2021/06/20 11:27:59;;;;;;;31.87;28.90;;;33.30;47.60;;;;;;4969357;28;20458;-82
2021/06/20 11:30:27;;;;;;;31.83;29.93;;;33.30;47.80;;;;;;4965725;28;21167;-82
2021/06/20 11:32:54;;;;;;;30.10;28.00;;;33.30;48.20;;;;;;4962220;28;20508;-83
2021/06/20 11:35:21;;;;;;;30.07;27.53;;;33.30;48.20;;;;;;4966312;28;20829;-84
2021/06/20 11:37:50;;;;;;;30.90;28.27;;;33.50;47.50;;;;;;4964560;28;20463;-84
2021/06/20 11:40:22;;;;;;;30.03;27.80;;;33.20;48.40;;;;;;4961811;28;20548;-84
2021/06/20 11:42:51;;;;;;;34.30;31.50;;;33.30;48.00;;;;;;4963111;28;20470;-84
2021/06/20 11:45:19;;;;;;;32.03;29.37;;;33.20;48.10;;;;;;4973771;28;20467;-83
2021/06/20 11:47:50;;;;;;;30.03;27.77;;;33.20;47.90;;;;;;4962204;28;20467;-84
2021/06/20 11:50:19;;;;;;;30.07;27.67;;;33.10;48.30;;;;;;4969376;28;20471;-83
2021/06/20 11:52:52;;;;;;;31.03;28.70;;;32.90;48.50;;;;;;4961880;28;20465;-84
2021/06/20 11:55:21;;;;;;;31.70;28.97;;;32.90;48.60;;;;;;4962848;28;20902;-84
2021/06/20 11:57:49;;;;;;;33.67;30.77;;;32.90;48.80;;;;;;4963108;28;20466;-83
2021/06/20 12:00:18;;;;;;;29.90;27.90;;;32.90;48.30;;;;;;4962150;28;20478;-83
2021/06/20 12:02:46;;;;;;;30.70;28.03;;;32.90;48.80;;;;;;4963746;28;20463;-83
2021/06/20 12:05:17;;;;;;;34.47;31.87;;;33.00;47.60;;;;;;4957521;28;20488;-84
2021/06/20 12:07:44;;;;;;;30.83;28.40;;;32.70;48.60;;;;;;4960299;28;20463;-83
2021/06/20 12:10:15;;;;;;;32.23;29.40;;;32.90;48.70;;;;;;4963167;28;20472;-83
2021/06/20 12:12:43;;;;;;;34.00;30.90;;;32.90;47.60;;;;;;4962456;28;20462;-83
2021/06/20 12:15:10;;;;;;;31.30;28.67;;;33.00;48.20;;;;;;4968148;28;20490;-83
2021/06/20 12:17:39;;;;;;;33.40;30.60;;;33.30;47.40;;;;;;4965918;28;20452;-79
2021/06/20 12:20:09;;;;;;;31.27;28.67;;;33.30;46.80;;;;;;4963486;28;20950;-79
2021/06/20 12:22:47;;;;;;;31.80;28.70;;;33.20;47.50;;;;;;4969777;28;20478;-80
2021/06/20 12:25:15;;;;;;;31.33;28.70;;;33.30;47.30;;;;;;4962009;28;20475;-82
2021/06/20 12:27:44;;;;;;;32.60;29.57;;;33.30;47.10;;;;;;4973161;28;20491;-80
2021/06/20 12:30:17;;;;;;;33.30;30.30;;;33.30;47.90;;;;;;4984128;28;20461;-82
2021/06/20 12:32:45;;;;;;;33.17;29.97;;;33.30;48.20;;;;;;4975665;28;20535;-81
2021/06/20 12:35:21;;;;;;;31.03;28.63;;;33.50;47.10;;;;;;4971825;28;20475;-81